Terminal Aerodrome Forecast
Issued by NWS

Home | Current Version | Previous Version | Text Only | Print | Product List | Glossary On
Versions: 1 2 3 4 5 6 7 8 9 10 11 12 13 14 15 16 17 18
000
FTUS44 KOUN 221736
TAFGAG
TAF
KGAG 221736Z 2218/2318 17009KT 6SM BR OVC006
     FM230100 20011KT P6SM BKN250
     FM230500 19008KT 1SM BR OVC003
     FM231600 32006KT P6SM SCT008=

USA.gov is the U.S. government's official web portal to all federal, state and local government web resources and services.